Portada
METAR-TAF:

METAR-TAF

Aeroports :

Londres Biggin Hill, Anglaterra

latitud: 51-19N, longitud: 000-02E, altitud: 183 m

Observació

L'informe es va fer fa 1 hora i 34 minuts, a les 22:20 UTC
Vent 11 kt del Oest/Sud-Oest
Temperatura 8°C
Humitat 87%
Pressió 1008 hPa
Visibilitat 10 km o més
Escasses núvols a una alçada de 2500 ft

METAR: EGKB 062220Z 25011KT 9999 FEW025 08/06 Q1008

Hora: 23:54 (23:54 UTC)

Pronòstic

L'informe es va fer fa 3 hores i 55 minuts, a les 19:59 UTC
Pronòstic vàlid del 06 a les 21 UTC al 06 a les 23 UTC
Vent 11 kt del Oest
Visibilitat 10 km o més
Núvols disperses a una alçada de 3500 ft

TAF: EGKB 061959Z 0621/0623 26011KT 9999 SCT035

Observacions i pronòstics meteorològics de més de 4000 aeroports (METAR i TAF).

Les estacions disponibles són els punts grocs i vermells al mapa.

Posi el ratolí al punt desitjat per veure el nom de l'estació.

Feu clic per veure les observacions i els pronòstics meteorològics.

Per canviar el mapa: feu clic els botons verds amb una creu de color negre per apropar; al botó verd amb un guió per allunyar la imatge; o en les fletxes verdes per a mapes adjacents.


METAR-TAF: